createdAt,value
2023-03-18T00:00:35.894Z,21.30
2023-03-18T00:03:06.292Z,21.30
2023-03-18T00:05:36.662Z,21.30
2023-03-18T00:08:08.492Z,21.30
2023-03-18T00:10:39.009Z,21.40
2023-03-18T00:13:09.428Z,21.30
2023-03-18T00:15:40.196Z,21.30
2023-03-18T00:18:10.843Z,21.40
2023-03-18T00:20:41.383Z,21.30
2023-03-18T00:23:12.363Z,21.40
2023-03-18T00:25:44.578Z,21.40
2023-03-18T00:28:16.260Z,21.40
2023-03-18T00:30:48.244Z,21.40
2023-03-18T00:33:19.606Z,21.40
2023-03-18T00:35:50.396Z,21.40
2023-03-18T00:38:29.895Z,21.40
2023-03-18T00:41:06.017Z,21.40
2023-03-18T00:43:53.989Z,21.40
2023-03-18T00:46:32.948Z,21.40
2023-03-18T00:49:06.769Z,21.40
2023-03-18T00:51:39.153Z,21.40
2023-03-18T00:54:11.589Z,21.40
2023-03-18T00:56:43.477Z,21.40
2023-03-18T00:59:13.798Z,21.50
2023-03-18T01:01:44.378Z,21.40
2023-03-18T01:04:14.800Z,21.50
2023-03-18T01:06:45.547Z,21.50
2023-03-18T01:09:16.100Z,21.50
2023-03-18T01:11:46.724Z,21.50
2023-03-18T01:14:17.153Z,21.50
2023-03-18T01:16:48.697Z,21.50
2023-03-18T01:19:19.438Z,21.50
2023-03-18T01:21:49.874Z,21.50
2023-03-18T01:24:20.035Z,21.60
2023-03-18T01:26:50.611Z,21.60
2023-03-18T01:29:22.551Z,21.60
2023-03-18T01:31:53.498Z,21.60
2023-03-18T01:34:23.684Z,21.60
2023-03-18T01:36:55.584Z,21.60
2023-03-18T01:39:26.693Z,21.60
2023-03-18T01:41:57.152Z,21.60
2023-03-18T01:44:27.579Z,21.60
2023-03-18T01:46:58.684Z,21.60
2023-03-18T01:49:40.320Z,21.60
2023-03-18T01:52:14.625Z,21.70
2023-03-18T01:54:58.487Z,21.70
2023-03-18T01:57:30.474Z,21.70
2023-03-18T02:00:01.543Z,21.70
2023-03-18T02:02:32.019Z,21.70
2023-03-18T02:05:07.899Z,21.70
2023-03-18T02:07:40.379Z,21.80
2023-03-18T02:10:17.348Z,21.70
2023-03-18T02:12:53.378Z,21.70
2023-03-18T02:15:25.546Z,21.70
2023-03-18T02:18:23.889Z,21.80
2023-03-18T02:21:08.978Z,21.80
2023-03-18T02:23:57.224Z,21.80
2023-03-18T02:26:42.618Z,21.80
2023-03-18T02:29:16.344Z,21.80
2023-03-18T02:31:48.264Z,21.80
2023-03-18T02:34:20.443Z,21.80
2023-03-18T02:36:51.162Z,21.80
2023-03-18T02:39:21.765Z,21.90
2023-03-18T02:41:52.214Z,21.90
2023-03-18T02:44:23.674Z,21.90
2023-03-18T02:46:58.519Z,21.90
2023-03-18T02:49:29.376Z,21.90
2023-03-18T02:52:00.004Z,21.90
2023-03-18T02:54:32.525Z,21.90
2023-03-18T02:57:04.365Z,21.90
2023-03-18T02:59:34.810Z,22.00
2023-03-18T03:02:05.589Z,22.00
2023-03-18T03:04:36.150Z,22.00
2023-03-18T03:07:06.469Z,22.00
2023-03-18T03:09:37.202Z,22.00
2023-03-18T03:12:08.243Z,22.00
2023-03-18T03:14:38.666Z,22.00
2023-03-18T03:17:08.862Z,22.10
2023-03-18T03:19:39.359Z,22.10
2023-03-18T03:22:09.740Z,22.10
2023-03-18T03:24:40.238Z,22.10
2023-03-18T03:27:10.538Z,22.10
2023-03-18T03:29:41.840Z,22.10
2023-03-18T03:32:12.565Z,22.10
2023-03-18T03:34:43.196Z,22.10
2023-03-18T03:37:14.201Z,22.20
2023-03-18T03:39:45.130Z,22.20
2023-03-18T03:42:15.366Z,22.20
2023-03-18T03:44:45.852Z,22.20
2023-03-18T03:47:17.075Z,22.20
2023-03-18T03:49:47.315Z,22.20
2023-03-18T03:52:19.862Z,22.30
2023-03-18T03:54:50.058Z,22.30
2023-03-18T03:57:21.265Z,22.20
2023-03-18T03:59:51.680Z,22.30
2023-03-18T04:02:23.218Z,22.30
2023-03-18T04:04:54.612Z,22.30
2023-03-18T04:07:25.160Z,22.40
2023-03-18T04:09:57.795Z,22.40
2023-03-18T04:12:28.258Z,22.40
2023-03-18T04:14:58.688Z,22.40
2023-03-18T04:17:29.266Z,22.40
2023-03-18T04:20:00.325Z,22.40
2023-03-18T04:22:31.259Z,22.40
2023-03-18T04:25:02.089Z,22.50
2023-03-18T04:27:32.432Z,22.50
2023-03-18T04:30:02.714Z,22.50
2023-03-18T04:32:33.016Z,22.50
2023-03-18T04:35:03.305Z,22.50
2023-03-18T04:37:37.196Z,22.50
2023-03-18T04:40:08.773Z,22.50
2023-03-18T04:42:38.953Z,22.60
2023-03-18T04:45:09.889Z,22.60
2023-03-18T04:47:40.150Z,22.60
2023-03-18T04:50:13.821Z,22.60
2023-03-18T04:52:45.367Z,22.60
2023-03-18T04:55:19.747Z,22.60
2023-03-18T04:57:52.178Z,22.70
2023-03-18T05:00:23.994Z,22.70
2023-03-18T05:02:54.243Z,22.70
2023-03-18T05:05:24.615Z,22.70
2023-03-18T05:07:54.846Z,22.70
2023-03-18T05:10:25.340Z,22.70
2023-03-18T05:12:56.887Z,22.80
2023-03-18T05:15:27.672Z,22.80
2023-03-18T05:17:58.122Z,22.80
2023-03-18T05:20:29.551Z,22.80
2023-03-18T05:22:59.927Z,22.90
2023-03-18T05:25:30.472Z,22.80
2023-03-18T05:28:01.410Z,22.90
2023-03-18T05:30:31.968Z,22.90
2023-03-18T05:33:02.337Z,22.90
2023-03-18T05:35:32.958Z,22.90
2023-03-18T05:38:03.632Z,22.90
2023-03-18T05:40:34.162Z,22.90
2023-03-18T05:43:04.609Z,22.90
2023-03-18T05:45:36.335Z,23.00
2023-03-18T05:48:08.591Z,23.00
2023-03-18T05:50:41.962Z,23.00
2023-03-18T05:53:13.380Z,23.00
2023-03-18T05:55:44.214Z,23.00
2023-03-18T05:58:14.521Z,23.00
2023-03-18T06:00:45.246Z,23.10
2023-03-18T06:03:15.514Z,23.10
2023-03-18T06:05:46.052Z,23.10
2023-03-18T06:08:20.065Z,23.10
2023-03-18T06:10:50.555Z,23.10
2023-03-18T06:13:20.752Z,23.10
2023-03-18T06:15:51.116Z,23.10
2023-03-18T06:18:21.308Z,23.10
2023-03-18T06:20:52.151Z,23.10
2023-03-18T06:23:23.375Z,23.20
2023-03-18T06:25:54.337Z,23.20
2023-03-18T06:28:24.594Z,23.20
2023-03-18T06:30:59.375Z,23.20
2023-03-18T06:33:29.881Z,23.20
2023-03-18T06:36:00.499Z,23.20
2023-03-18T06:38:30.992Z,23.30
2023-03-18T06:41:01.629Z,23.30
2023-03-18T06:43:32.770Z,23.30
2023-03-18T06:46:03.309Z,23.30
2023-03-18T06:48:34.624Z,23.30
2023-03-18T06:51:05.637Z,23.30
2023-03-18T06:53:38.069Z,23.30
2023-03-18T06:56:09.789Z,23.30
2023-03-18T06:58:40.179Z,23.40
2023-03-18T07:01:11.044Z,23.40
2023-03-18T07:03:41.881Z,23.40
2023-03-18T07:06:12.291Z,23.40
2023-03-18T07:08:42.643Z,23.40
2023-03-18T07:11:12.963Z,23.40
2023-03-18T07:13:43.365Z,23.40
2023-03-18T07:16:14.073Z,23.40
2023-03-18T07:18:44.454Z,23.40
2023-03-18T07:21:15.493Z,23.40
2023-03-18T07:23:46.292Z,23.50
2023-03-18T07:26:16.543Z,23.50
2023-03-18T07:28:46.775Z,23.50
2023-03-18T07:31:17.156Z,23.50
2023-03-18T07:33:48.530Z,23.50
2023-03-18T07:36:18.804Z,23.50
2023-03-18T07:38:49.025Z,23.50
2023-03-18T07:41:20.001Z,23.50
2023-03-18T07:43:50.498Z,23.50
2023-03-18T07:46:20.839Z,23.60
2023-03-18T07:48:51.320Z,23.60
2023-03-18T07:51:21.512Z,23.60
2023-03-18T07:53:53.355Z,23.60
2023-03-18T07:56:23.598Z,23.60
2023-03-18T07:58:54.500Z,23.60
2023-03-18T08:01:24.777Z,23.60
2023-03-18T08:03:55.091Z,23.60
2023-03-18T08:06:25.932Z,23.60
2023-03-18T08:08:56.295Z,23.60
2023-03-18T08:11:26.874Z,23.60
2023-03-18T08:13:57.107Z,23.60
2023-03-18T08:16:27.927Z,23.60
2023-03-18T08:18:58.307Z,23.60
2023-03-18T08:21:28.797Z,23.60
2023-03-18T08:23:59.724Z,23.60
2023-03-18T08:26:30.002Z,23.70
2023-03-18T08:29:00.354Z,23.70
2023-03-18T08:31:30.969Z,23.70
2023-03-18T08:34:02.441Z,23.70
2023-03-18T08:36:32.967Z,23.70
2023-03-18T08:39:03.511Z,23.70
2023-03-18T08:41:34.075Z,23.70
2023-03-18T08:44:05.235Z,23.70
2023-03-18T08:46:35.530Z,23.70
2023-03-18T08:49:06.016Z,23.70
2023-03-18T08:51:36.921Z,23.70
2023-03-18T08:54:07.448Z,23.70
2023-03-18T08:56:37.815Z,23.70
2023-03-18T08:59:08.751Z,23.70
2023-03-18T09:01:40.300Z,23.70
2023-03-18T09:04:11.192Z,23.70
2023-03-18T09:06:41.662Z,23.70
2023-03-18T09:09:13.560Z,23.80
2023-03-18T09:11:44.307Z,23.70
2023-03-18T09:14:15.144Z,23.80
2023-03-18T09:16:46.017Z,23.70
2023-03-18T09:19:16.405Z,23.80
2023-03-18T09:21:47.019Z,23.70
2023-03-18T09:24:19.459Z,23.80
2023-03-18T09:26:50.306Z,23.80
2023-03-18T09:29:20.523Z,23.80
2023-03-18T09:31:52.039Z,23.80
2023-03-18T09:34:22.223Z,23.80
2023-03-18T09:36:55.556Z,23.80
2023-03-18T09:39:26.041Z,23.80
2023-03-18T09:42:17.809Z,23.80
2023-03-18T09:45:03.007Z,23.80
2023-03-18T09:47:49.565Z,23.80
2023-03-18T09:50:29.258Z,23.80
2023-03-18T09:53:25.861Z,23.80
2023-03-18T09:55:58.224Z,23.80
2023-03-18T09:58:58.607Z,23.70
2023-03-18T10:01:30.921Z,23.80
2023-03-18T10:04:24.686Z,23.70
2023-03-18T10:07:08.652Z,23.80
2023-03-18T10:09:46.344Z,23.70
2023-03-18T10:12:37.023Z,23.80
2023-03-18T10:15:21.260Z,23.70
2023-03-18T10:18:34.598Z,23.70
2023-03-18T10:21:10.878Z,23.80
2023-03-18T10:23:56.403Z,23.70
2023-03-18T10:26:33.945Z,23.80
2023-03-18T10:29:10.409Z,23.70
2023-03-18T10:32:00.772Z,23.80
2023-03-18T10:34:51.166Z,23.80
2023-03-18T10:37:48.651Z,23.70
2023-03-18T10:40:22.411Z,23.70
2023-03-18T10:42:55.494Z,23.70
2023-03-18T10:45:35.244Z,23.70
2023-03-18T10:48:42.918Z,23.80
2023-03-18T10:51:37.625Z,23.80
2023-03-18T10:54:42.606Z,23.70
2023-03-18T10:57:18.538Z,23.70
2023-03-18T10:59:53.057Z,23.70
2023-03-18T11:02:42.758Z,23.70
2023-03-18T11:05:38.363Z,23.70
2023-03-18T11:08:12.354Z,23.70
2023-03-18T11:10:48.723Z,23.70
2023-03-18T11:13:23.920Z,23.70
2023-03-18T11:15:58.182Z,23.70
2023-03-18T11:18:29.936Z,23.70
2023-03-18T11:21:06.452Z,23.70
2023-03-18T11:23:52.368Z,23.70
2023-03-18T11:26:26.476Z,23.70
2023-03-18T11:29:01.942Z,23.70
2023-03-18T11:31:32.368Z,23.70
2023-03-18T11:34:03.586Z,23.70
2023-03-18T11:36:34.650Z,23.70
2023-03-18T11:39:09.778Z,23.70
2023-03-18T11:41:42.050Z,23.70
2023-03-18T11:44:21.271Z,23.70
2023-03-18T11:47:16.448Z,23.70
2023-03-18T11:49:47.596Z,23.70
2023-03-18T11:52:29.804Z,23.60
2023-03-18T11:55:15.950Z,23.70
2023-03-18T11:58:29.524Z,23.60
2023-03-18T12:01:00.170Z,23.60
2023-03-18T12:03:33.304Z,23.60
2023-03-18T12:06:09.891Z,23.60
2023-03-18T12:09:06.739Z,23.60
2023-03-18T12:11:51.434Z,23.60
2023-03-18T12:14:37.018Z,23.60
2023-03-18T12:17:25.971Z,23.60
2023-03-18T12:20:20.455Z,23.60
2023-03-18T12:23:03.447Z,23.60
2023-03-18T12:25:54.495Z,23.60
2023-03-18T12:28:48.283Z,23.60
2023-03-18T12:31:42.428Z,23.60
2023-03-18T12:34:46.212Z,23.60
2023-03-18T12:38:00.525Z,23.60
2023-03-18T12:41:01.185Z,23.60
2023-03-18T12:43:45.788Z,23.50
2023-03-18T12:46:37.674Z,23.50
2023-03-18T12:49:17.948Z,23.50
2023-03-18T12:51:57.410Z,23.50
2023-03-18T12:54:45.279Z,23.50
2023-03-18T12:57:34.521Z,23.50
2023-03-18T13:00:16.772Z,23.50
2023-03-18T13:03:30.150Z,23.50
2023-03-18T13:06:10.964Z,23.60
2023-03-18T13:09:05.951Z,23.50
2023-03-18T13:11:48.110Z,23.50
2023-03-18T13:14:39.395Z,23.50
2023-03-18T13:17:26.679Z,23.50
2023-03-18T13:19:58.919Z,23.50
2023-03-18T13:22:50.184Z,23.40
2023-03-18T13:25:44.362Z,23.50
2023-03-18T13:28:34.170Z,23.40
2023-03-18T13:31:10.205Z,23.40
2023-03-18T13:34:01.988Z,23.40
2023-03-18T13:36:56.212Z,23.40
2023-03-18T13:39:33.514Z,23.40
2023-03-18T13:42:35.610Z,23.40
2023-03-18T13:45:12.433Z,23.40
2023-03-18T13:47:44.341Z,23.40
2023-03-18T13:50:24.092Z,23.40
2023-03-18T13:52:58.974Z,23.40
2023-03-18T13:55:35.857Z,23.40
2023-03-18T13:58:18.067Z,23.40
2023-03-18T14:01:03.384Z,23.40
2023-03-18T14:03:46.220Z,23.40
2023-03-18T14:06:19.452Z,23.30
2023-03-18T14:08:54.370Z,23.30
2023-03-18T14:11:30.711Z,23.40
2023-03-18T14:14:07.733Z,23.30
2023-03-18T14:16:41.039Z,23.30
2023-03-18T14:19:34.106Z,23.30
2023-03-18T14:22:38.179Z,23.30
2023-03-18T14:25:36.295Z,23.30
2023-03-18T14:28:12.790Z,23.30
2023-03-18T14:30:47.563Z,23.30
2023-03-18T14:33:24.423Z,23.30
2023-03-18T14:36:11.444Z,23.30
2023-03-18T14:38:51.867Z,23.30
2023-03-18T14:41:32.711Z,23.20
2023-03-18T14:44:38.007Z,23.20
2023-03-18T14:47:31.771Z,23.20
2023-03-18T14:50:57.438Z,23.20
2023-03-18T14:53:36.852Z,23.20
2023-03-18T14:56:08.253Z,23.20
2023-03-18T14:58:38.870Z,23.20
2023-03-18T15:01:15.989Z,23.20
2023-03-18T15:03:49.267Z,23.20
2023-03-18T15:06:30.921Z,23.10
2023-03-18T15:09:07.119Z,23.20
2023-03-18T15:11:46.240Z,23.10
2023-03-18T15:14:25.153Z,23.10
2023-03-18T15:17:02.250Z,23.10
2023-03-18T15:19:33.231Z,23.10
2023-03-18T15:22:09.196Z,23.10
2023-03-18T15:24:39.646Z,23.10
2023-03-18T15:27:23.680Z,23.10
2023-03-18T15:30:06.801Z,23.10
2023-03-18T15:32:51.256Z,23.10
2023-03-18T15:35:30.482Z,23.10
2023-03-18T15:38:20.843Z,23.10
2023-03-18T15:40:54.185Z,23.10
2023-03-18T15:43:56.273Z,23.10
2023-03-18T15:46:34.987Z,23.00
2023-03-18T15:49:07.960Z,23.00
2023-03-18T15:51:50.241Z,23.00
2023-03-18T15:54:42.409Z,23.00
2023-03-18T15:57:25.374Z,23.00
2023-03-18T15:59:56.326Z,23.00
2023-03-18T16:02:27.272Z,23.00
2023-03-18T16:05:17.157Z,23.00
2023-03-18T16:07:48.392Z,23.00
2023-03-18T16:10:24.391Z,23.00
2023-03-18T16:13:04.054Z,23.00
2023-03-18T16:15:34.527Z,23.00
2023-03-18T16:18:04.910Z,22.90
2023-03-18T16:20:35.963Z,22.90
2023-03-18T16:23:06.720Z,22.90
2023-03-18T16:25:37.046Z,22.90
2023-03-18T16:28:07.280Z,22.90
2023-03-18T16:30:41.770Z,22.90
2023-03-18T16:33:16.620Z,22.90
2023-03-18T16:35:48.133Z,22.90
2023-03-18T16:38:22.599Z,22.90
2023-03-18T16:40:54.840Z,22.90
2023-03-18T16:43:29.602Z,22.90
2023-03-18T16:46:07.488Z,22.90
2023-03-18T16:48:38.400Z,22.90
2023-03-18T16:51:09.044Z,22.80
2023-03-18T16:53:39.551Z,22.80
2023-03-18T16:56:15.665Z,22.80
2023-03-18T16:58:47.039Z,22.80
2023-03-18T17:01:20.956Z,22.80
2023-03-18T17:03:51.319Z,22.80
2023-03-18T17:06:21.660Z,22.80
2023-03-18T17:08:52.331Z,22.80
2023-03-18T17:11:23.128Z,22.80
2023-03-18T17:13:53.425Z,22.80
2023-03-18T17:16:24.041Z,22.70
2023-03-18T17:18:54.217Z,22.70
2023-03-18T17:21:24.891Z,22.70
2023-03-18T17:23:55.166Z,22.70
2023-03-18T17:26:27.393Z,22.70
2023-03-18T17:29:00.521Z,22.70
2023-03-18T17:31:30.755Z,22.70
2023-03-18T17:34:00.974Z,22.70
2023-03-18T17:36:31.208Z,22.70
2023-03-18T17:39:01.871Z,22.70
2023-03-18T17:41:34.133Z,22.70
2023-03-18T17:44:04.515Z,22.70
2023-03-18T17:46:34.869Z,22.60
2023-03-18T17:49:06.199Z,22.60
2023-03-18T17:51:36.494Z,22.60
2023-03-18T17:54:09.924Z,22.60
2023-03-18T17:56:40.665Z,22.60
2023-03-18T17:59:17.610Z,22.60
2023-03-18T18:01:52.432Z,22.60
2023-03-18T18:04:24.992Z,22.60
2023-03-18T18:06:56.083Z,22.60
2023-03-18T18:09:26.338Z,22.60
2023-03-18T18:11:56.915Z,22.60
2023-03-18T18:14:33.388Z,22.60
2023-03-18T18:17:03.838Z,22.50
2023-03-18T18:19:34.111Z,22.50
2023-03-18T18:22:06.193Z,22.50
2023-03-18T18:24:37.385Z,22.50
2023-03-18T18:27:07.965Z,22.50
2023-03-18T18:29:38.258Z,22.50
2023-03-18T18:32:08.717Z,22.50
2023-03-18T18:34:39.177Z,22.50
2023-03-18T18:37:09.851Z,22.50
2023-03-18T18:39:40.135Z,22.50
2023-03-18T18:42:10.714Z,22.40
2023-03-18T18:44:41.873Z,22.40
2023-03-18T18:47:21.969Z,22.40
2023-03-18T18:49:52.694Z,22.40
2023-03-18T18:52:23.110Z,22.40
2023-03-18T18:54:53.738Z,22.40
2023-03-18T18:57:30.046Z,22.40
2023-03-18T19:00:00.434Z,22.40
2023-03-18T19:02:39.287Z,22.40
2023-03-18T19:05:10.186Z,22.40
2023-03-18T19:07:41.783Z,22.40
2023-03-18T19:10:17.946Z,22.30
2023-03-18T19:12:48.965Z,22.40
2023-03-18T19:15:23.343Z,22.30
2023-03-18T19:17:54.730Z,22.30
2023-03-18T19:20:32.983Z,22.30
2023-03-18T19:23:03.563Z,22.30
2023-03-18T19:25:34.086Z,22.30
2023-03-18T19:28:04.594Z,22.30
2023-03-18T19:30:35.592Z,22.20
2023-03-18T19:33:12.435Z,22.20
2023-03-18T19:35:43.089Z,22.20
2023-03-18T19:38:25.070Z,22.20
2023-03-18T19:40:56.867Z,22.20
2023-03-18T19:43:27.124Z,22.20
2023-03-18T19:45:58.131Z,22.20
2023-03-18T19:48:30.566Z,22.20
2023-03-18T19:51:00.847Z,22.20
2023-03-18T19:53:31.644Z,22.20
2023-03-18T19:56:02.120Z,22.20
2023-03-18T19:58:32.874Z,22.20
2023-03-18T20:01:03.419Z,22.20
2023-03-18T20:03:35.066Z,22.10
2023-03-18T20:06:05.273Z,22.10
2023-03-18T20:08:35.584Z,22.10
2023-03-18T20:11:05.978Z,22.10
2023-03-18T20:13:36.243Z,22.10
2023-03-18T20:16:06.555Z,22.10
2023-03-18T20:18:36.945Z,22.10
2023-03-18T20:21:07.339Z,22.10
2023-03-18T20:23:38.531Z,22.10
2023-03-18T20:26:09.180Z,22.10
2023-03-18T20:28:44.066Z,22.10
2023-03-18T20:31:16.227Z,22.00
2023-03-18T20:33:46.566Z,22.00
2023-03-18T20:36:19.826Z,22.00
2023-03-18T20:38:52.116Z,22.00
2023-03-18T20:41:23.476Z,22.00
2023-03-18T20:43:53.972Z,22.00
2023-03-18T20:46:25.627Z,22.00
2023-03-18T20:48:56.316Z,22.00
2023-03-18T20:51:39.543Z,22.00
2023-03-18T20:54:25.576Z,22.00
2023-03-18T20:56:56.124Z,22.00
2023-03-18T20:59:26.887Z,21.90
2023-03-18T21:01:57.347Z,21.90
2023-03-18T21:04:27.603Z,21.90
2023-03-18T21:06:58.863Z,21.90
2023-03-18T21:09:29.311Z,21.90
2023-03-18T21:11:59.771Z,21.90
2023-03-18T21:14:30.007Z,21.90
2023-03-18T21:17:00.661Z,21.90
2023-03-18T21:19:30.977Z,21.90
2023-03-18T21:22:02.015Z,21.90
2023-03-18T21:24:33.287Z,21.90
2023-03-18T21:27:05.684Z,21.80
2023-03-18T21:29:36.930Z,21.90
2023-03-18T21:32:07.380Z,21.80
2023-03-18T21:34:38.358Z,21.80
2023-03-18T21:37:17.172Z,21.80
2023-03-18T21:39:47.975Z,21.80
2023-03-18T21:42:30.645Z,21.80
2023-03-18T21:45:01.257Z,21.80
2023-03-18T21:47:31.695Z,21.80
2023-03-18T21:50:02.245Z,21.80
2023-03-18T21:52:35.270Z,21.80
2023-03-18T21:55:07.897Z,21.80
2023-03-18T21:57:38.779Z,21.80
2023-03-18T22:00:09.849Z,21.80
2023-03-18T22:02:40.604Z,21.80
2023-03-18T22:05:19.882Z,21.80
2023-03-18T22:07:52.052Z,21.80
2023-03-18T22:10:25.226Z,21.70
2023-03-18T22:12:55.499Z,21.80
2023-03-18T22:15:32.490Z,21.70
2023-03-18T22:18:03.591Z,21.70
2023-03-18T22:20:36.400Z,21.70
2023-03-18T22:23:21.674Z,21.70
2023-03-18T22:25:55.804Z,21.70
2023-03-18T22:28:29.719Z,21.70
2023-03-18T22:31:02.680Z,21.70
2023-03-18T22:33:37.308Z,21.70
2023-03-18T22:36:08.108Z,21.70
2023-03-18T22:38:38.406Z,21.70
2023-03-18T22:41:15.996Z,21.70
2023-03-18T22:43:46.405Z,21.70
2023-03-18T22:46:17.021Z,21.70
2023-03-18T22:48:47.674Z,21.70
2023-03-18T22:51:43.848Z,21.70
2023-03-18T22:54:20.798Z,21.70
2023-03-18T22:56:51.025Z,21.70
2023-03-18T22:59:21.213Z,21.70
2023-03-18T23:01:52.584Z,21.70
2023-03-18T23:04:22.863Z,21.70
2023-03-18T23:06:54.212Z,21.70
2023-03-18T23:09:24.376Z,21.60
2023-03-18T23:11:54.618Z,21.70
2023-03-18T23:14:24.807Z,21.60
2023-03-18T23:16:55.052Z,21.60
2023-03-18T23:19:25.498Z,21.60
2023-03-18T23:21:56.068Z,21.70
2023-03-18T23:24:26.301Z,21.60
2023-03-18T23:26:56.630Z,21.70
2023-03-18T23:29:26.937Z,21.60
2023-03-18T23:31:57.377Z,21.60
2023-03-18T23:34:27.972Z,21.60
2023-03-18T23:36:58.203Z,21.60
2023-03-18T23:39:28.956Z,21.60
2023-03-18T23:41:59.288Z,21.60
2023-03-18T23:44:30.316Z,21.60
2023-03-18T23:47:00.621Z,21.60
2023-03-18T23:49:34.124Z,21.60
2023-03-18T23:52:07.563Z,21.70
2023-03-18T23:54:38.187Z,21.60
2023-03-18T23:57:10.708Z,21.60
2023-03-18T23:59:41.233Z,21.60
